Time;durP1;ratioP1;P1;durP2;ratioP2;P2;SDS_P1;SDS_P2;PMS_P1;PMS_P2;Temp;Humidity;BMP_temperature;BMP_pressure;BME280_temperature;BME280_humidity;BME280_pressure;Samples;Min_cycle;Max_cycle;Signal;HPM_P1;HPM_P2
2021/05/21 00:00:37;;;;;;;1.60;1.50;;;10.60;99.90;;;;;;4914641;29;20428;-73
2021/05/21 00:03:03;;;;;;;1.55;1.45;;;10.60;99.90;;;;;;4879969;29;20413;-75
2021/05/21 00:05:29;;;;;;;1.60;1.50;;;10.60;99.90;;;;;;4871016;29;20465;-75
2021/05/21 00:07:55;;;;;;;1.60;1.50;;;10.60;99.90;;;;;;4886379;29;20392;-75
2021/05/21 00:10:21;;;;;;;1.60;1.50;;;10.60;99.90;;;;;;4898045;29;20435;-75
2021/05/21 00:12:46;;;;;;;1.60;1.50;;;10.60;99.90;;;;;;4897580;29;20411;-73
2021/05/21 00:15:13;;;;;;;1.27;1.27;;;10.70;99.90;;;;;;4897331;29;20407;-75
2021/05/21 00:17:42;;;;;;;1.52;1.42;;;10.60;99.90;;;;;;4879877;29;20914;-77
2021/05/21 00:20:08;;;;;;;2.60;1.40;;;10.60;99.90;;;;;;4867396;29;20395;-79
2021/05/21 00:22:33;;;;;;;1.60;1.50;;;10.70;99.90;;;;;;4883318;29;20403;-75
2021/05/21 00:24:59;;;;;;;1.30;1.30;;;10.80;99.90;;;;;;4881797;29;20415;-77
2021/05/21 00:27:25;;;;;;;1.70;1.60;;;10.70;99.90;;;;;;4903688;29;20464;-74
2021/05/21 00:29:51;;;;;;;1.48;1.38;;;10.60;99.90;;;;;;4898879;29;20407;-75
2021/05/21 00:32:16;;;;;;;1.70;1.60;;;10.60;99.90;;;;;;4882726;29;20415;-76
2021/05/21 00:34:42;;;;;;;1.70;1.60;;;10.60;99.90;;;;;;4903221;29;20421;-82
2021/05/21 00:37:08;;;;;;;1.73;1.60;;;10.60;99.90;;;;;;4894692;29;21230;-78
2021/05/21 00:39:33;;;;;;;1.50;1.40;;;10.50;99.90;;;;;;4887157;29;20436;-81
2021/05/21 00:41:59;;;;;;;1.33;1.23;;;10.60;99.90;;;;;;4881030;29;20429;-76
2021/05/21 00:44:25;;;;;;;1.60;1.50;;;10.50;99.90;;;;;;4882957;29;20442;-78
2021/05/21 00:46:50;;;;;;;2.63;1.50;;;10.50;99.90;;;;;;4880799;29;20934;-80
2021/05/21 00:49:19;;;;;;;1.80;1.33;;;10.50;99.90;;;;;;4875509;29;25510;-77
2021/05/21 00:51:47;;;;;;;1.80;1.60;;;10.60;99.90;;;;;;4897952;29;20408;-73
2021/05/21 00:54:15;;;;;;;1.63;1.52;;;10.70;99.90;;;;;;4882812;29;20407;-75
2021/05/21 00:56:40;;;;;;;2.10;1.80;;;10.50;99.90;;;;;;4882297;29;20439;-76
2021/05/21 00:59:06;;;;;;;1.50;1.40;;;10.50;99.90;;;;;;4876800;29;20404;-76
2021/05/21 01:01:32;;;;;;;3.00;1.80;;;10.50;99.90;;;;;;4912953;29;20411;-81
2021/05/21 01:03:58;;;;;;;1.60;1.50;;;10.50;99.90;;;;;;4898108;29;20514;-76
2021/05/21 01:06:23;;;;;;;2.50;1.70;;;10.50;99.90;;;;;;4881470;29;20538;-76
2021/05/21 01:08:49;;;;;;;1.20;1.20;;;10.50;99.90;;;;;;4897778;29;20917;-74
2021/05/21 01:11:20;;;;;;;1.42;1.33;;;10.50;99.90;;;;;;4875515;29;20427;-80
2021/05/21 01:13:45;;;;;;;1.50;1.40;;;10.50;99.90;;;;;;4882007;29;20819;-78
2021/05/21 01:16:11;;;;;;;1.70;1.60;;;10.50;99.90;;;;;;4897109;29;20432;-76
2021/05/21 01:18:36;;;;;;;1.70;1.60;;;10.50;99.90;;;;;;4896095;29;20400;-76
2021/05/21 01:21:02;;;;;;;1.50;1.40;;;10.40;99.90;;;;;;4897382;29;20412;-74
2021/05/21 01:23:28;;;;;;;1.60;1.50;;;10.40;99.90;;;;;;4885502;29;20940;-76
2021/05/21 01:25:54;;;;;;;1.70;1.60;;;10.40;99.90;;;;;;4892034;29;20871;-76
2021/05/21 01:28:20;;;;;;;1.80;1.60;;;10.40;99.90;;;;;;4883575;29;20487;-76
2021/05/21 01:30:46;;;;;;;1.75;1.65;;;10.40;99.90;;;;;;4862902;29;20433;-77
2021/05/21 01:33:11;;;;;;;1.58;1.48;;;10.50;99.90;;;;;;4880065;29;20410;-76
2021/05/21 01:35:38;;;;;;;1.40;1.30;;;10.50;99.90;;;;;;4865149;29;20883;-74
2021/05/21 01:38:04;;;;;;;2.63;1.30;;;10.40;99.90;;;;;;4881777;29;20481;-77
2021/05/21 01:40:30;;;;;;;1.97;1.53;;;10.50;99.90;;;;;;4880862;29;20904;-75
2021/05/21 01:42:56;;;;;;;2.00;1.75;;;10.40;99.90;;;;;;4897833;29;21077;-78
2021/05/21 01:45:22;;;;;;;1.80;1.70;;;10.30;99.90;;;;;;4895412;29;20404;-78
2021/05/21 01:47:48;;;;;;;1.60;1.50;;;10.40;99.90;;;;;;4914266;29;20419;-76
2021/05/21 01:50:14;;;;;;;1.50;1.40;;;10.40;99.90;;;;;;4883103;29;20400;-77
2021/05/21 01:52:40;;;;;;;3.00;1.90;;;10.50;99.90;;;;;;4896644;29;20417;-75
2021/05/21 01:55:06;;;;;;;1.80;1.70;;;10.40;99.90;;;;;;4898539;29;20408;-75
2021/05/21 01:57:35;;;;;;;1.80;1.70;;;10.40;99.90;;;;;;4895677;29;20844;-77
2021/05/21 02:00:01;;;;;;;3.30;2.00;;;10.40;99.90;;;;;;4885717;29;20427;-76
2021/05/21 02:02:27;;;;;;;2.38;1.77;;;10.40;99.90;;;;;;4899427;29;20415;-74
2021/05/21 02:04:53;;;;;;;1.90;1.80;;;10.30;99.90;;;;;;4873124;29;20415;-74
2021/05/21 02:07:18;;;;;;;2.30;1.60;;;10.30;99.90;;;;;;4871663;29;20554;-75
2021/05/21 02:09:52;;;;;;;1.63;1.53;;;10.30;99.90;;;;;;4899617;29;20419;-77
2021/05/21 02:12:18;;;;;;;1.30;1.30;;;10.20;99.90;;;;;;4893161;29;20787;-75
2021/05/21 02:14:43;;;;;;;1.57;1.47;;;10.20;99.90;;;;;;4892246;29;20416;-76
2021/05/21 02:17:09;;;;;;;1.60;1.50;;;10.20;99.90;;;;;;4891783;29;20415;-74
2021/05/21 02:19:35;;;;;;;1.60;1.50;;;10.20;99.90;;;;;;4865066;29;20404;-74
2021/05/21 02:22:01;;;;;;;2.53;1.45;;;10.20;99.90;;;;;;4865104;29;20420;-80
2021/05/21 02:24:26;;;;;;;1.40;1.30;;;10.20;99.90;;;;;;4880690;29;20949;-76
2021/05/21 02:26:52;;;;;;;1.93;1.33;;;10.10;99.90;;;;;;4873339;29;20410;-76
2021/05/21 02:29:18;;;;;;;1.45;1.35;;;10.10;99.90;;;;;;4883643;29;20431;-74
2021/05/21 02:31:43;;;;;;;1.25;1.17;;;10.20;99.90;;;;;;4885044;29;20400;-76
2021/05/21 02:34:09;;;;;;;1.40;1.20;;;10.20;99.90;;;;;;4893361;29;21175;-75
2021/05/21 02:36:35;;;;;;;1.20;1.20;;;10.20;99.90;;;;;;4879574;29;20479;-75
2021/05/21 02:39:01;;;;;;;1.20;1.20;;;10.10;99.90;;;;;;4912262;29;20495;-79
2021/05/21 02:41:26;;;;;;;1.50;1.40;;;10.20;99.90;;;;;;4878202;29;20541;-75
2021/05/21 02:43:52;;;;;;;1.30;1.20;;;10.20;99.90;;;;;;4907072;29;20789;-79
2021/05/21 02:46:18;;;;;;;2.10;1.60;;;10.20;99.90;;;;;;4897978;29;20413;-79
2021/05/21 02:48:43;;;;;;;1.73;1.50;;;10.10;99.90;;;;;;4895546;29;20415;-75
2021/05/21 02:51:09;;;;;;;1.00;1.00;;;10.20;99.90;;;;;;4889094;29;20411;-74
2021/05/21 02:53:35;;;;;;;1.43;1.37;;;10.20;99.90;;;;;;4897060;29;20419;-74
2021/05/21 02:56:00;;;;;;;1.38;1.27;;;10.20;99.90;;;;;;4890419;29;20419;-75
2021/05/21 02:58:26;;;;;;;1.20;1.10;;;10.20;99.90;;;;;;4909854;29;21175;-75
2021/05/21 03:00:52;;;;;;;1.63;1.52;;;10.20;99.90;;;;;;4892194;29;20419;-75
2021/05/21 03:03:17;;;;;;;1.45;1.40;;;10.30;99.90;;;;;;4897031;29;20462;-74
2021/05/21 03:05:43;;;;;;;1.40;1.30;;;10.20;99.90;;;;;;4880347;29;20934;-77
2021/05/21 03:08:09;;;;;;;1.50;1.40;;;10.30;99.90;;;;;;4884112;29;20435;-76
2021/05/21 03:10:35;;;;;;;1.40;1.30;;;10.30;99.90;;;;;;4879613;29;20399;-75
2021/05/21 03:13:01;;;;;;;1.37;1.27;;;10.20;99.90;;;;;;4898402;29;20438;-76
2021/05/21 03:15:28;;;;;;;1.42;1.33;;;10.30;99.90;;;;;;4907440;29;20411;-77
2021/05/21 03:17:55;;;;;;;1.60;1.50;;;10.30;99.90;;;;;;4894916;29;21378;-75
2021/05/21 03:20:21;;;;;;;1.50;1.40;;;10.20;99.90;;;;;;4905833;29;20792;-78
2021/05/21 03:22:46;;;;;;;1.40;1.30;;;10.30;99.90;;;;;;4896883;29;20937;-76
2021/05/21 03:25:12;;;;;;;1.40;1.30;;;10.40;99.90;;;;;;4899938;29;20434;-76
2021/05/21 03:27:38;;;;;;;1.17;1.17;;;10.40;99.90;;;;;;4884066;29;20437;-75
2021/05/21 03:30:08;;;;;;;1.37;1.27;;;10.40;99.90;;;;;;4881560;29;20415;-74
2021/05/21 03:32:34;;;;;;;1.40;1.30;;;10.40;99.90;;;;;;4896735;29;20433;-76
2021/05/21 03:34:59;;;;;;;1.80;1.70;;;10.40;99.90;;;;;;4898542;29;20442;-76
2021/05/21 03:37:25;;;;;;;1.45;1.40;;;10.40;99.90;;;;;;4897529;29;20439;-76
2021/05/21 03:39:51;;;;;;;1.60;1.30;;;10.40;99.90;;;;;;4900624;29;20435;-74
2021/05/21 03:42:17;;;;;;;1.40;1.30;;;10.40;99.90;;;;;;4909231;29;20432;-76
2021/05/21 03:44:43;;;;;;;1.42;1.10;;;10.40;99.90;;;;;;4918413;29;20458;-82
2021/05/21 03:47:09;;;;;;;1.30;1.20;;;10.50;99.90;;;;;;4884257;29;20415;-78
2021/05/21 03:49:34;;;;;;;3.23;1.40;;;10.60;99.90;;;;;;4900346;29;20910;-76
2021/05/21 03:52:00;;;;;;;1.73;1.23;;;10.60;99.90;;;;;;4899528;29;21094;-78
2021/05/21 03:54:26;;;;;;;1.20;1.20;;;10.60;99.90;;;;;;4899149;29;20431;-75
2021/05/21 03:56:51;;;;;;;1.60;1.50;;;10.70;99.90;;;;;;4914559;29;20446;-75
2021/05/21 03:59:17;;;;;;;2.70;1.40;;;10.70;99.90;;;;;;4898553;29;20926;-77
2021/05/21 04:01:45;;;;;;;1.30;1.20;;;10.80;99.90;;;;;;4882242;29;20491;-77
2021/05/21 04:04:10;;;;;;;1.40;1.30;;;10.80;99.90;;;;;;4900222;29;20751;-76
2021/05/21 04:06:36;;;;;;;1.50;1.40;;;10.80;99.90;;;;;;4895386;29;20421;-77
2021/05/21 04:09:06;;;;;;;1.50;1.40;;;10.90;99.90;;;;;;4881761;29;20477;-76
2021/05/21 04:11:33;;;;;;;1.40;1.30;;;10.90;99.90;;;;;;4885281;29;20478;-76
2021/05/21 04:13:59;;;;;;;1.60;1.50;;;10.90;99.90;;;;;;4915902;29;20431;-76
2021/05/21 04:16:25;;;;;;;2.10;1.20;;;10.90;99.90;;;;;;4883539;29;20420;-78
2021/05/21 04:18:51;;;;;;;1.93;1.83;;;10.90;99.90;;;;;;4899356;29;20398;-76
2021/05/21 04:21:18;;;;;;;2.67;2.47;;;10.90;99.90;;;;;;4915331;29;20423;-79
2021/05/21 04:23:44;;;;;;;1.65;1.55;;;11.00;99.90;;;;;;4884988;29;20945;-77
2021/05/21 04:26:09;;;;;;;1.37;1.30;;;11.10;99.90;;;;;;4899708;29;20395;-78
2021/05/21 04:28:35;;;;;;;1.30;1.20;;;11.10;99.90;;;;;;4868708;29;20409;-75
2021/05/21 04:31:01;;;;;;;1.10;1.10;;;11.10;99.90;;;;;;4889664;29;20405;-80
2021/05/21 04:33:26;;;;;;;1.47;1.37;;;11.20;99.90;;;;;;4864009;29;20896;-76
2021/05/21 04:35:52;;;;;;;1.10;1.10;;;11.20;99.90;;;;;;4898721;29;20794;-76
2021/05/21 04:38:18;;;;;;;1.30;1.30;;;11.40;99.90;;;;;;4899965;29;20418;-76
2021/05/21 04:40:43;;;;;;;1.35;1.30;;;11.40;99.90;;;;;;4888161;29;20415;-77
2021/05/21 04:43:09;;;;;;;1.50;1.40;;;11.50;99.90;;;;;;4915132;29;20401;-77
2021/05/21 04:45:35;;;;;;;1.48;1.38;;;11.50;99.90;;;;;;4899263;29;20392;-76
2021/05/21 04:48:00;;;;;;;1.70;1.30;;;11.60;99.90;;;;;;4878704;29;20409;-74
2021/05/21 04:50:26;;;;;;;1.45;1.38;;;11.60;99.90;;;;;;4924371;29;20763;-80
2021/05/21 04:52:52;;;;;;;1.30;1.20;;;11.70;99.90;;;;;;4897619;29;20403;-77
2021/05/21 04:55:17;;;;;;;1.17;1.17;;;11.60;99.90;;;;;;4913335;29;20403;-77
2021/05/21 04:57:49;;;;;;;1.30;1.30;;;11.60;99.90;;;;;;4882431;29;20959;-76
2021/05/21 05:00:15;;;;;;;1.10;1.10;;;11.60;99.90;;;;;;4898048;29;20574;-77
2021/05/21 05:02:40;;;;;;;1.40;1.30;;;11.70;99.90;;;;;;4911046;29;20451;-76
2021/05/21 05:05:07;;;;;;;1.53;1.20;;;11.80;99.90;;;;;;4881018;29;20407;-77
2021/05/21 05:07:32;;;;;;;1.50;1.40;;;12.00;99.90;;;;;;4898051;29;20823;-75
2021/05/21 05:09:58;;;;;;;1.50;1.40;;;12.10;99.90;;;;;;4927289;29;20412;-75
2021/05/21 05:12:24;;;;;;;1.70;1.40;;;12.30;99.90;;;;;;4882117;29;20404;-77
2021/05/21 05:14:49;;;;;;;1.42;1.30;;;12.40;99.90;;;;;;4878147;29;20423;-76
2021/05/21 05:17:15;;;;;;;1.50;1.40;;;12.40;99.90;;;;;;4869463;29;20514;-77
2021/05/21 05:19:41;;;;;;;1.42;1.33;;;12.50;99.90;;;;;;4899614;29;20396;-77
2021/05/21 05:22:06;;;;;;;1.33;1.23;;;12.50;99.90;;;;;;4898490;29;20404;-76
2021/05/21 05:24:33;;;;;;;1.93;1.40;;;12.70;99.90;;;;;;4899728;29;20418;-76
2021/05/21 05:26:58;;;;;;;1.33;1.23;;;12.70;99.90;;;;;;4914848;29;20440;-77
2021/05/21 05:29:24;;;;;;;1.10;1.10;;;12.80;99.90;;;;;;4898773;29;20437;-77
2021/05/21 05:31:50;;;;;;;1.30;1.20;;;13.00;99.90;;;;;;4898470;29;20954;-78
2021/05/21 05:34:15;;;;;;;1.35;1.27;;;13.20;99.90;;;;;;4894515;29;20430;-76
2021/05/21 05:36:41;;;;;;;1.40;1.30;;;13.30;99.90;;;;;;4913496;29;20414;-79
2021/05/21 05:39:07;;;;;;;1.40;1.30;;;13.50;99.90;;;;;;4930497;29;20764;-77
2021/05/21 05:41:33;;;;;;;1.35;1.27;;;13.80;99.90;;;;;;4898389;29;20412;-77
2021/05/21 05:43:58;;;;;;;1.37;1.27;;;13.90;99.90;;;;;;4898966;29;20414;-76
2021/05/21 05:46:24;;;;;;;6.03;2.42;;;13.90;99.90;;;;;;4881402;29;20404;-76
2021/05/21 05:48:50;;;;;;;6.93;4.90;;;14.00;99.90;;;;;;4870463;29;21054;-78
2021/05/21 05:51:16;;;;;;;3.85;3.28;;;14.10;99.90;;;;;;4864537;29;20481;-79
2021/05/21 05:53:42;;;;;;;2.30;1.40;;;14.20;99.90;;;;;;4864477;29;20408;-79
2021/05/21 05:56:08;;;;;;;1.27;1.20;;;14.30;99.90;;;;;;4864432;29;20413;-77
2021/05/21 05:58:33;;;;;;;1.00;1.00;;;14.50;99.90;;;;;;4871963;29;20423;-77
2021/05/21 06:00:59;;;;;;;1.15;1.05;;;14.50;99.90;;;;;;4882944;29;20455;-77
2021/05/21 06:03:27;;;;;;;1.20;1.10;;;14.40;99.90;;;;;;4908252;29;20411;-77
2021/05/21 06:05:53;;;;;;;1.17;1.08;;;14.50;99.90;;;;;;4880721;29;20497;-77
2021/05/21 06:08:18;;;;;;;1.10;1.10;;;14.60;99.90;;;;;;4864185;29;20481;-78
2021/05/21 06:10:44;;;;;;;1.20;1.15;;;14.80;99.90;;;;;;4879892;29;20408;-75
2021/05/21 06:13:10;;;;;;;1.00;1.00;;;15.00;99.90;;;;;;4863810;29;20962;-77
2021/05/21 06:15:36;;;;;;;1.30;1.20;;;15.20;99.90;;;;;;4863762;29;20405;-77
2021/05/21 06:18:02;;;;;;;1.00;1.00;;;15.40;99.90;;;;;;4865824;29;20425;-77
2021/05/21 06:20:28;;;;;;;1.20;1.10;;;15.50;99.90;;;;;;4884374;29;20429;-78
2021/05/21 06:22:54;;;;;;;0.98;0.98;;;15.50;99.90;;;;;;4864087;29;20496;-77
2021/05/21 06:25:28;;;;;;;1.10;1.10;;;15.60;99.90;;;;;;4865301;29;20896;-79
2021/05/21 06:27:54;;;;;;;0.90;0.90;;;15.60;99.90;;;;;;4850497;29;20404;-76
2021/05/21 06:30:19;;;;;;;0.80;0.80;;;15.80;99.90;;;;;;4878777;29;20405;-77
2021/05/21 06:32:45;;;;;;;0.90;0.90;;;15.90;99.90;;;;;;4863873;29;20484;-77
2021/05/21 06:35:12;;;;;;;0.90;0.90;;;16.00;99.90;;;;;;4865097;29;20412;-77
2021/05/21 06:37:38;;;;;;;0.90;0.90;;;16.10;99.90;;;;;;4864576;29;20424;-77
2021/05/21 06:40:04;;;;;;;0.80;0.80;;;16.30;99.90;;;;;;4865644;29;21090;-79
2021/05/21 06:42:30;;;;;;;0.80;0.80;;;16.50;99.90;;;;;;4880549;29;20416;-79
2021/05/21 06:44:57;;;;;;;1.00;0.90;;;16.60;99.90;;;;;;4894430;29;20409;-77
2021/05/21 06:47:23;;;;;;;2.33;0.93;;;16.70;99.90;;;;;;4865108;29;20919;-76
2021/05/21 06:49:49;;;;;;;1.00;1.00;;;16.80;99.90;;;;;;4867726;29;20409;-77
2021/05/21 06:52:15;;;;;;;0.70;0.70;;;16.80;99.90;;;;;;4896782;29;20469;-78
2021/05/21 06:54:41;;;;;;;0.80;0.80;;;16.90;99.90;;;;;;4890419;29;20415;-77
2021/05/21 06:57:07;;;;;;;0.90;0.90;;;17.10;99.90;;;;;;4898279;29;20832;-77
2021/05/21 06:59:33;;;;;;;1.00;1.00;;;17.40;99.90;;;;;;4899077;29;20568;-76
2021/05/21 07:01:58;;;;;;;0.90;0.90;;;17.60;99.90;;;;;;4914301;29;20410;-75
2021/05/21 07:04:24;;;;;;;4.25;1.08;;;17.80;99.90;;;;;;4898858;29;20778;-76
2021/05/21 07:06:50;;;;;;;1.10;1.00;;;17.80;99.90;;;;;;4883951;29;20391;-76
2021/05/21 07:09:15;;;;;;;1.15;1.00;;;17.70;99.90;;;;;;4883140;29;21037;-75
2021/05/21 07:11:41;;;;;;;0.83;0.83;;;17.60;99.90;;;;;;4898037;29;20434;-77
2021/05/21 07:14:09;;;;;;;1.73;0.80;;;17.70;99.90;;;;;;4898890;29;20442;-79
2021/05/21 07:16:34;;;;;;;1.00;1.00;;;17.80;99.90;;;;;;4882541;29;20411;-76
2021/05/21 07:19:00;;;;;;;0.70;0.70;;;17.70;99.90;;;;;;4883485;29;20540;-80
2021/05/21 07:21:29;;;;;;;0.77;0.77;;;17.80;99.90;;;;;;4883270;29;20400;-76
2021/05/21 07:23:54;;;;;;;0.73;0.70;;;17.90;99.90;;;;;;4883092;29;20412;-77
2021/05/21 07:26:20;;;;;;;1.00;0.80;;;18.10;99.90;;;;;;4914635;29;20532;-77
2021/05/21 07:28:47;;;;;;;0.70;0.65;;;18.20;99.90;;;;;;4901875;29;20410;-77
2021/05/21 07:31:13;;;;;;;0.70;0.70;;;18.40;99.90;;;;;;4902023;29;20908;-76
2021/05/21 07:33:38;;;;;;;0.80;0.80;;;18.60;99.90;;;;;;4902836;29;20410;-77
2021/05/21 07:36:05;;;;;;;0.80;0.80;;;18.50;99.90;;;;;;4886873;29;20417;-77
2021/05/21 07:38:32;;;;;;;0.70;0.70;;;18.60;99.90;;;;;;4893398;29;20896;-77
2021/05/21 07:40:58;;;;;;;0.52;0.52;;;18.60;99.90;;;;;;4935043;28;20901;-77
2021/05/21 07:43:24;;;;;;;0.60;0.60;;;18.80;99.90;;;;;;4902182;29;20401;-76
2021/05/21 07:45:49;;;;;;;1.20;0.90;;;18.80;99.90;;;;;;4900978;29;20394;-77
2021/05/21 07:48:15;;;;;;;0.80;0.80;;;18.80;99.90;;;;;;4902278;29;20394;-77
2021/05/21 07:50:41;;;;;;;1.30;0.90;;;19.00;99.90;;;;;;4901917;28;20390;-76
2021/05/21 07:53:07;;;;;;;0.70;0.70;;;19.20;99.90;;;;;;4903433;29;20441;-78
2021/05/21 07:55:33;;;;;;;0.80;0.80;;;19.40;99.90;;;;;;4899675;29;20995;-76
2021/05/21 07:57:58;;;;;;;0.80;0.80;;;19.40;99.90;;;;;;4949139;29;20493;-78
2021/05/21 08:00:24;;;;;;;4.47;1.00;;;19.60;99.90;;;;;;4917801;29;20469;-78
2021/05/21 08:02:50;;;;;;;0.80;0.80;;;19.70;99.90;;;;;;4886664;29;20417;-78
2021/05/21 08:05:15;;;;;;;0.95;0.85;;;19.90;99.90;;;;;;4924736;29;20409;-78
2021/05/21 08:07:41;;;;;;;0.63;0.63;;;20.00;99.90;;;;;;4902738;29;20473;-77
2021/05/21 08:10:08;;;;;;;0.70;0.70;;;20.00;99.90;;;;;;4905477;29;20465;-77
2021/05/21 08:12:48;;;;;;;1.63;0.85;;;20.00;99.90;;;;;;4921975;29;20394;-77
2021/05/21 08:15:16;;;;;;;0.73;0.73;;;20.30;99.90;;;;;;4909527;29;20492;-78
2021/05/21 08:17:45;;;;;;;0.70;0.70;;;20.50;99.90;;;;;;4883527;29;20771;-79
2021/05/21 08:20:12;;;;;;;0.98;0.80;;;20.60;99.90;;;;;;4906357;29;20398;-78
2021/05/21 08:22:37;;;;;;;1.15;0.88;;;20.60;99.90;;;;;;4892554;29;20405;-79
2021/05/21 08:25:05;;;;;;;0.73;0.70;;;20.60;99.80;;;;;;4906161;29;20950;-78
2021/05/21 08:27:30;;;;;;;0.70;0.70;;;20.50;99.20;;;;;;4886857;29;20998;-77
2021/05/21 08:29:58;;;;;;;0.70;0.70;;;20.40;98.90;;;;;;4886203;29;20403;-78
2021/05/21 08:32:56;;;;;;;0.63;0.63;;;20.30;98.40;;;;;;4883454;29;20412;-79
2021/05/21 08:35:24;;;;;;;1.08;0.98;;;20.50;99.90;;;;;;4923213;29;20450;-79
2021/05/21 08:37:50;;;;;;;0.73;0.73;;;20.60;99.90;;;;;;4879525;29;20611;-79
2021/05/21 08:40:28;;;;;;;0.82;0.82;;;21.00;98.50;;;;;;4892745;29;20409;-79
2021/05/21 08:42:58;;;;;;;0.95;0.90;;;21.10;96.90;;;;;;4863148;29;20403;-79
2021/05/21 08:45:29;;;;;;;0.70;0.70;;;20.90;98.40;;;;;;4874411;29;20497;-79
2021/05/21 08:47:54;;;;;;;0.70;0.70;;;20.90;96.30;;;;;;4877034;29;20413;-79
2021/05/21 08:50:20;;;;;;;2.50;1.30;;;21.00;98.40;;;;;;4865662;29;20474;-80
2021/05/21 08:52:47;;;;;;;0.60;0.60;;;21.20;99.40;;;;;;4879902;29;20424;-79
2021/05/21 08:55:13;;;;;;;0.77;0.70;;;21.30;99.40;;;;;;4863476;29;20417;-79
2021/05/21 08:57:38;;;;;;;0.65;0.65;;;21.60;98.80;;;;;;4878950;29;20425;-79
2021/05/21 09:00:08;;;;;;;0.80;0.80;;;21.60;95.20;;;;;;4910409;29;20409;-79
2021/05/21 09:02:34;;;;;;;0.70;0.70;;;21.60;95.50;;;;;;4877412;29;20469;-79
2021/05/21 09:05:00;;;;;;;0.47;0.47;;;21.40;93.30;;;;;;4864515;29;20419;-80
2021/05/21 09:07:27;;;;;;;1.30;0.75;;;21.60;96.00;;;;;;4882862;29;20849;-79
2021/05/21 09:09:53;;;;;;;1.15;0.65;;;21.90;94.40;;;;;;4897101;29;20409;-79
2021/05/21 09:12:19;;;;;;;0.60;0.60;;;21.90;92.70;;;;;;4846157;29;20411;-79
2021/05/21 09:15:07;;;;;;;0.70;0.70;;;22.00;94.80;;;;;;4895579;29;20537;-79
2021/05/21 09:17:33;;;;;;;0.80;0.80;;;21.90;90.50;;;;;;4909390;29;20455;-78
2021/05/21 09:19:59;;;;;;;0.70;0.70;;;22.20;92.80;;;;;;4894306;29;21118;-80
2021/05/21 09:22:24;;;;;;;0.60;0.60;;;22.50;94.40;;;;;;4878946;29;20438;-80
2021/05/21 09:24:50;;;;;;;1.00;0.90;;;22.10;90.50;;;;;;4878023;29;20434;-80
2021/05/21 09:27:17;;;;;;;1.33;0.70;;;22.40;92.80;;;;;;4877211;29;20407;-79
2021/05/21 09:29:45;;;;;;;0.90;0.90;;;22.50;92.70;;;;;;4857007;29;20415;-80
2021/05/21 09:32:30;;;;;;;0.65;0.65;;;22.30;89.70;;;;;;4848638;29;20406;-79
2021/05/21 09:35:07;;;;;;;0.80;0.80;;;22.20;90.30;;;;;;4862414;29;20415;-80
2021/05/21 09:37:35;;;;;;;0.73;0.73;;;22.60;90.60;;;;;;4878365;29;20445;-79
2021/05/21 09:40:14;;;;;;;0.93;0.93;;;22.80;90.30;;;;;;4877561;29;20502;-79
2021/05/21 09:42:51;;;;;;;0.70;0.70;;;23.00;89.80;;;;;;4861808;29;21345;-79
2021/05/21 09:45:18;;;;;;;0.80;0.80;;;22.70;87.10;;;;;;4874802;29;20414;-79
2021/05/21 09:47:55;;;;;;;1.10;0.88;;;22.60;89.70;;;;;;4893437;29;20405;-79
2021/05/21 09:50:34;;;;;;;0.90;0.70;;;22.60;92.80;;;;;;4890364;29;20532;-79
2021/05/21 09:53:04;;;;;;;0.68;0.68;;;22.70;88.20;;;;;;4877969;29;20448;-79
2021/05/21 09:55:34;;;;;;;0.68;0.68;;;22.90;84.10;;;;;;4895622;29;20401;-79
2021/05/21 09:57:59;;;;;;;0.57;0.57;;;23.00;87.60;;;;;;4895368;29;20418;-80
2021/05/21 10:00:25;;;;;;;0.73;0.73;;;22.90;88.40;;;;;;4892942;29;20757;-79
2021/05/21 10:02:51;;;;;;;1.60;0.50;;;22.80;87.10;;;;;;4907122;29;20428;-80
2021/05/21 10:05:16;;;;;;;0.80;0.80;;;23.20;87.80;;;;;;4894409;29;20401;-80
2021/05/21 10:07:42;;;;;;;0.70;0.70;;;23.60;77.80;;;;;;4858809;29;20407;-80
2021/05/21 10:10:08;;;;;;;0.83;0.80;;;23.50;82.50;;;;;;4892784;29;20407;-80
2021/05/21 10:12:34;;;;;;;0.57;0.57;;;23.50;79.80;;;;;;4879167;29;20467;-80
2021/05/21 10:15:00;;;;;;;0.50;0.50;;;23.50;82.30;;;;;;4892902;29;20831;-79
2021/05/21 10:17:25;;;;;;;0.45;0.45;;;23.40;78.00;;;;;;4862673;29;20450;-80
2021/05/21 10:19:54;;;;;;;0.70;0.70;;;23.40;78.50;;;;;;4892021;29;20544;-80
2021/05/21 10:22:34;;;;;;;1.00;0.45;;;23.60;79.30;;;;;;4884118;29;20408;-79
2021/05/21 10:25:06;;;;;;;2.40;0.80;;;23.20;74.40;;;;;;4900828;29;20408;-80
2021/05/21 10:27:32;;;;;;;0.60;0.60;;;23.30;76.80;;;;;;4887438;29;20459;-80
2021/05/21 10:30:02;;;;;;;0.70;0.70;;;23.30;79.40;;;;;;4893379;29;20405;-80
2021/05/21 10:32:30;;;;;;;0.60;0.60;;;23.50;76.50;;;;;;4893210;29;20409;-80
2021/05/21 10:34:55;;;;;;;0.70;0.70;;;23.50;77.30;;;;;;4892122;29;20799;-79
2021/05/21 10:37:39;;;;;;;0.65;0.65;;;23.50;75.00;;;;;;4902206;29;20421;-79
2021/05/21 10:40:27;;;;;;;0.90;0.60;;;23.20;74.30;;;;;;4893317;29;20450;-79
2021/05/21 10:43:15;;;;;;;0.68;0.68;;;22.90;73.30;;;;;;4876520;29;20414;-79
2021/05/21 10:46:13;;;;;;;0.50;0.50;;;22.70;64.80;;;;;;4891955;29;20644;-79
2021/05/21 10:48:55;;;;;;;2.15;0.70;;;22.40;67.10;;;;;;4864187;29;20957;-79
2021/05/21 10:51:21;;;;;;;1.40;0.47;;;22.30;67.60;;;;;;4859332;29;20491;-79
2021/05/21 10:53:47;;;;;;;0.57;0.57;;;22.40;70.40;;;;;;4862967;29;20480;-79
2021/05/21 10:56:15;;;;;;;0.80;0.80;;;22.80;72.50;;;;;;4862684;29;20412;-80
2021/05/21 10:58:44;;;;;;;0.65;0.60;;;22.80;74.30;;;;;;4877224;29;20409;-79
2021/05/21 11:01:26;;;;;;;0.50;0.50;;;22.70;69.90;;;;;;4891295;29;20433;-80
2021/05/21 11:04:08;;;;;;;2.13;0.60;;;22.80;70.10;;;;;;4862918;29;20434;-81
2021/05/21 11:06:50;;;;;;;3.05;0.60;;;22.40;68.40;;;;;;4873962;29;20441;-81
2021/05/21 11:09:18;;;;;;;1.70;0.80;;;22.20;71.20;;;;;;4883893;29;20436;-80
2021/05/21 11:12:00;;;;;;;1.73;0.80;;;22.30;72.80;;;;;;4875003;29;21064;-80
2021/05/21 11:14:30;;;;;;;2.80;0.80;;;22.40;70.80;;;;;;4875728;29;20415;-82
2021/05/21 11:17:18;;;;;;;0.60;0.60;;;22.80;75.20;;;;;;4878731;29;20903;-82
2021/05/21 11:19:56;;;;;;;0.60;0.60;;;23.10;73.90;;;;;;4901308;29;20425;-81
2021/05/21 11:22:23;;;;;;;2.93;0.67;;;22.90;71.20;;;;;;4880068;29;20469;-81
2021/05/21 11:24:51;;;;;;;0.60;0.60;;;22.80;72.50;;;;;;4892111;29;20424;-80
2021/05/21 11:27:17;;;;;;;0.40;0.40;;;22.90;71.90;;;;;;4878346;29;20397;-80
2021/05/21 11:29:50;;;;;;;0.93;0.60;;;23.20;74.90;;;;;;4865345;29;20393;-80
2021/05/21 11:32:16;;;;;;;0.50;0.50;;;23.30;67.40;;;;;;4886229;29;20930;-80
2021/05/21 11:34:42;;;;;;;0.60;0.60;;;23.30;68.80;;;;;;4869713;29;20786;-79
2021/05/21 11:37:08;;;;;;;3.20;0.80;;;23.20;68.40;;;;;;4876586;29;20970;-80
2021/05/21 11:39:36;;;;;;;2.10;0.70;;;23.30;68.30;;;;;;4861826;29;20422;-81
2021/05/21 11:42:04;;;;;;;0.88;0.77;;;23.40;72.40;;;;;;4867288;29;20440;-80
2021/05/21 11:44:31;;;;;;;1.20;0.88;;;23.70;67.10;;;;;;4843596;29;20481;-81
2021/05/21 11:47:02;;;;;;;0.50;0.50;;;23.60;65.70;;;;;;4868329;29;20420;-81
2021/05/21 11:49:28;;;;;;;3.85;0.60;;;23.40;66.90;;;;;;4865280;29;20421;-80
2021/05/21 11:51:54;;;;;;;0.50;0.50;;;23.20;69.30;;;;;;4851895;29;20401;-81
2021/05/21 11:54:20;;;;;;;0.75;0.70;;;23.30;69.30;;;;;;4878209;29;20410;-80
2021/05/21 11:56:46;;;;;;;1.50;0.80;;;23.20;68.30;;;;;;4882492;29;20409;-81
2021/05/21 11:59:13;;;;;;;0.50;0.50;;;23.40;68.80;;;;;;4850329;29;20448;-80
2021/05/21 12:01:50;;;;;;;0.70;0.50;;;23.70;69.20;;;;;;4892459;29;20416;-80
2021/05/21 12:04:16;;;;;;;0.50;0.50;;;23.60;62.20;;;;;;4864878;29;20520;-79
2021/05/21 12:06:47;;;;;;;0.68;0.68;;;23.20;65.10;;;;;;4888636;29;20508;-81
2021/05/21 12:09:13;;;;;;;0.50;0.50;;;23.10;63.30;;;;;;4897892;29;20401;-80
2021/05/21 12:11:39;;;;;;;1.00;0.90;;;23.30;67.80;;;;;;4896420;29;20412;-81
2021/05/21 12:14:17;;;;;;;0.70;0.70;;;23.50;66.10;;;;;;4878430;29;20409;-81
2021/05/21 12:16:43;;;;;;;1.08;0.70;;;23.60;64.60;;;;;;4883735;29;20423;-81
2021/05/21 12:19:10;;;;;;;0.65;0.63;;;23.50;66.80;;;;;;4878198;29;20501;-81
2021/05/21 12:21:41;;;;;;;0.70;0.70;;;23.40;68.50;;;;;;4886254;29;20465;-80
2021/05/21 12:24:07;;;;;;;0.70;0.70;;;23.30;64.00;;;;;;4866257;29;20444;-80
2021/05/21 12:26:34;;;;;;;1.23;0.80;;;23.00;64.20;;;;;;4882843;29;20802;-81
2021/05/21 12:29:01;;;;;;;0.43;0.43;;;22.80;65.40;;;;;;4882008;29;20814;-81
2021/05/21 12:31:28;;;;;;;0.50;0.50;;;22.60;64.80;;;;;;4860699;29;20407;-80
2021/05/21 12:33:55;;;;;;;0.50;0.50;;;22.60;68.40;;;;;;4867052;29;20459;-81
2021/05/21 12:36:28;;;;;;;0.57;0.57;;;22.50;65.70;;;;;;4867478;29;20429;-81
2021/05/21 12:39:06;;;;;;;0.60;0.60;;;22.40;67.30;;;;;;4883530;29;20401;-81
2021/05/21 12:41:39;;;;;;;0.70;0.70;;;22.60;66.90;;;;;;4861661;29;20406;-81
2021/05/21 12:44:20;;;;;;;0.60;0.60;;;22.90;64.20;;;;;;4866952;29;20420;-81
2021/05/21 12:46:45;;;;;;;1.80;0.70;;;22.90;65.20;;;;;;4881494;29;20396;-80
2021/05/21 12:49:11;;;;;;;3.00;0.65;;;22.90;63.90;;;;;;4897453;29;20767;-82